Time;durP1;ratioP1;P1;durP2;ratioP2;P2;SDS_P1;SDS_P2;PMS_P1;PMS_P2;Temp;Humidity;BMP_temperature;BMP_pressure;BME280_temperature;BME280_humidity;BME280_pressure;Samples;Min_cycle;Max_cycle;Signal;HPM_P1;HPM_P2
2022/03/14 00:00:48;;;;;;;3.38;1.50;;;13.60;57.80;;;;;;5048320;28;20048;-80
2022/03/14 00:03:15;;;;;;;1.88;1.70;;;13.60;57.90;;;;;;5049564;28;20107;-80
2022/03/14 00:05:41;;;;;;;1.40;1.30;;;13.50;58.20;;;;;;5048680;28;20032;-80
2022/03/14 00:08:07;;;;;;;1.40;1.30;;;13.50;58.10;;;;;;5048903;28;20357;-80
2022/03/14 00:10:36;;;;;;;1.30;1.20;;;13.50;58.00;;;;;;5048110;28;20013;-80
2022/03/14 00:13:03;;;;;;;1.70;1.60;;;13.60;57.90;;;;;;5046987;28;20144;-80
2022/03/14 00:15:32;;;;;;;1.90;1.70;;;13.50;58.20;;;;;;5049422;28;20021;-80
2022/03/14 00:17:58;;;;;;;1.73;1.63;;;13.50;58.40;;;;;;5052278;28;20036;-80
2022/03/14 00:20:24;;;;;;;1.65;1.50;;;13.40;58.40;;;;;;5051639;28;20029;-81
2022/03/14 00:22:50;;;;;;;1.63;1.45;;;13.50;58.40;;;;;;5052833;28;20021;-81
2022/03/14 00:25:16;;;;;;;2.78;1.80;;;13.50;58.30;;;;;;5052392;28;20024;-80
2022/03/14 00:27:42;;;;;;;2.00;1.45;;;13.40;58.80;;;;;;5052918;28;20029;-81
2022/03/14 00:30:10;;;;;;;1.60;1.40;;;13.30;58.90;;;;;;5052365;28;20037;-81
2022/03/14 00:32:36;;;;;;;1.83;1.48;;;13.30;58.90;;;;;;5053115;28;20075;-80
2022/03/14 00:35:04;;;;;;;1.70;1.58;;;13.30;59.00;;;;;;5051954;28;20482;-80
2022/03/14 00:37:30;;;;;;;1.42;1.20;;;13.20;59.10;;;;;;5052647;28;20028;-80
2022/03/14 00:39:55;;;;;;;2.58;1.52;;;13.20;59.00;;;;;;5051085;28;20036;-80
2022/03/14 00:42:21;;;;;;;1.17;1.10;;;13.20;59.30;;;;;;5051758;28;20075;-81
2022/03/14 00:44:48;;;;;;;1.75;1.50;;;13.20;59.30;;;;;;5051614;28;20040;-81
2022/03/14 00:47:15;;;;;;;1.65;1.55;;;13.20;59.30;;;;;;5053066;28;20040;-81
2022/03/14 00:49:40;;;;;;;1.75;1.60;;;13.10;59.60;;;;;;5051530;28;20043;-81
2022/03/14 00:52:06;;;;;;;1.58;1.30;;;13.10;59.90;;;;;;5052748;28;20107;-81
2022/03/14 00:54:31;;;;;;;1.17;1.10;;;13.00;59.90;;;;;;5051918;28;20484;-81
2022/03/14 00:56:57;;;;;;;1.48;1.13;;;13.10;59.80;;;;;;5052529;28;20089;-81
2022/03/14 00:59:24;;;;;;;1.40;1.30;;;13.10;59.60;;;;;;5051881;28;20025;-81
2022/03/14 01:01:54;;;;;;;1.50;1.40;;;13.10;59.70;;;;;;5052255;28;20101;-81
2022/03/14 01:04:20;;;;;;;1.10;1.05;;;13.10;59.50;;;;;;5051093;28;20021;-81
2022/03/14 01:06:45;;;;;;;1.63;1.30;;;13.20;59.30;;;;;;5051804;28;20112;-81
2022/03/14 01:09:14;;;;;;;1.90;1.30;;;13.20;59.30;;;;;;5051562;28;20104;-81
2022/03/14 01:11:42;;;;;;;1.70;1.60;;;13.20;59.30;;;;;;5051512;28;20055;-81
2022/03/14 01:14:08;;;;;;;1.38;1.27;;;13.10;59.80;;;;;;5050215;28;20459;-80
2022/03/14 01:16:34;;;;;;;1.20;1.10;;;13.10;59.90;;;;;;5051900;28;20110;-80
2022/03/14 01:19:00;;;;;;;1.38;1.27;;;13.20;59.80;;;;;;5051212;28;20109;-80
2022/03/14 01:21:29;;;;;;;1.30;1.20;;;13.10;60.60;;;;;;5050184;28;20045;-80
2022/03/14 01:23:55;;;;;;;1.63;1.50;;;13.00;60.20;;;;;;5051644;28;20383;-80
2022/03/14 01:26:21;;;;;;;1.23;1.13;;;13.00;60.60;;;;;;5051319;28;20029;-80
2022/03/14 01:28:48;;;;;;;1.55;1.30;;;13.00;60.50;;;;;;5051256;28;20025;-80
2022/03/14 01:31:14;;;;;;;1.75;1.60;;;13.00;60.70;;;;;;5051342;28;20053;-80
2022/03/14 01:33:39;;;;;;;2.15;1.25;;;13.00;60.90;;;;;;5048337;28;20134;-80
2022/03/14 01:36:05;;;;;;;1.60;1.50;;;13.00;60.90;;;;;;5049250;28;20434;-81
2022/03/14 01:38:31;;;;;;;1.67;1.58;;;13.00;61.00;;;;;;5046452;28;20100;-81
2022/03/14 01:40:56;;;;;;;1.40;1.30;;;12.90;61.00;;;;;;5048951;28;20207;-81
2022/03/14 01:43:24;;;;;;;1.30;1.20;;;13.00;61.00;;;;;;5051552;28;20028;-81
2022/03/14 01:45:49;;;;;;;2.05;1.45;;;13.00;60.70;;;;;;5050381;28;20056;-81
2022/03/14 01:48:15;;;;;;;1.20;1.10;;;13.00;60.90;;;;;;5051385;28;20021;-80
2022/03/14 01:50:41;;;;;;;1.50;1.40;;;13.00;60.80;;;;;;5052261;28;20037;-80
2022/03/14 01:53:07;;;;;;;1.70;1.48;;;13.00;61.10;;;;;;5051338;28;20803;-80
2022/03/14 01:55:34;;;;;;;1.67;1.48;;;12.90;61.20;;;;;;5050225;28;20025;-79
2022/03/14 01:58:03;;;;;;;1.30;1.20;;;13.00;61.20;;;;;;5051336;28;20064;-80
2022/03/14 02:00:29;;;;;;;1.80;1.60;;;13.00;61.20;;;;;;5043691;28;20098;-80
2022/03/14 02:02:55;;;;;;;1.35;1.25;;;13.00;61.20;;;;;;5052169;28;20092;-80
2022/03/14 02:05:20;;;;;;;1.73;1.63;;;13.00;61.10;;;;;;5049647;28;20021;-81
2022/03/14 02:07:46;;;;;;;1.70;1.60;;;13.00;61.10;;;;;;5051157;28;20028;-80
2022/03/14 02:10:12;;;;;;;2.40;1.80;;;13.00;61.20;;;;;;5050194;28;20032;-80
2022/03/14 02:12:42;;;;;;;1.80;1.40;;;13.00;61.30;;;;;;5051199;28;20025;-80
2022/03/14 02:15:08;;;;;;;3.42;2.33;;;13.00;61.30;;;;;;5050148;28;20108;-81
2022/03/14 02:17:34;;;;;;;2.08;1.88;;;13.00;61.00;;;;;;5050657;28;20124;-81
2022/03/14 02:20:00;;;;;;;2.10;1.70;;;13.00;61.30;;;;;;5048500;28;20041;-80
2022/03/14 02:22:25;;;;;;;2.00;1.80;;;13.00;61.50;;;;;;5051128;28;20024;-81
2022/03/14 02:24:51;;;;;;;1.90;1.70;;;12.90;61.60;;;;;;5049865;28;20021;-81
2022/03/14 02:27:17;;;;;;;1.60;1.50;;;13.00;61.60;;;;;;5050176;28;20036;-81
2022/03/14 02:29:42;;;;;;;1.90;1.70;;;13.00;61.40;;;;;;5047458;28;20056;-81
2022/03/14 02:32:11;;;;;;;2.13;1.80;;;13.00;61.40;;;;;;5050457;28;20083;-81
2022/03/14 02:34:37;;;;;;;1.88;1.67;;;13.00;61.70;;;;;;5046820;28;20400;-81
2022/03/14 02:37:04;;;;;;;2.45;2.20;;;12.90;61.80;;;;;;5050463;28;20060;-81
2022/03/14 02:39:32;;;;;;;1.90;1.70;;;12.90;62.00;;;;;;5049324;28;20040;-81
2022/03/14 02:41:59;;;;;;;2.05;1.70;;;12.90;62.10;;;;;;5050304;28;20368;-80
2022/03/14 02:44:25;;;;;;;2.72;2.00;;;12.90;62.00;;;;;;5049671;28;20152;-79
2022/03/14 02:46:50;;;;;;;2.65;2.25;;;12.90;62.20;;;;;;5050184;28;20103;-81
2022/03/14 02:49:16;;;;;;;2.28;1.85;;;12.80;62.70;;;;;;5049856;28;20036;-81
2022/03/14 02:51:42;;;;;;;2.03;1.83;;;12.80;62.80;;;;;;5049071;28;20017;-81
2022/03/14 02:54:09;;;;;;;2.00;1.80;;;12.70;63.00;;;;;;5048629;28;20028;-81
2022/03/14 02:56:36;;;;;;;1.70;1.60;;;12.70;63.10;;;;;;5047734;28;20040;-81
2022/03/14 02:59:03;;;;;;;3.15;2.20;;;12.70;62.90;;;;;;5050057;28;20040;-80
2022/03/14 03:01:28;;;;;;;2.80;2.50;;;12.70;63.60;;;;;;5048958;28;20029;-80
2022/03/14 03:03:55;;;;;;;2.35;2.10;;;12.60;63.80;;;;;;5049578;28;20029;-79
2022/03/14 03:06:22;;;;;;;2.55;2.10;;;12.60;64.20;;;;;;5048946;28;20028;-79
2022/03/14 03:08:52;;;;;;;3.30;2.45;;;12.60;64.30;;;;;;5049759;28;20024;-79
2022/03/14 03:11:20;;;;;;;2.30;2.10;;;12.50;64.80;;;;;;5047913;28;20088;-79
2022/03/14 03:13:47;;;;;;;2.20;2.00;;;12.40;65.10;;;;;;5046923;28;20406;-81
2022/03/14 03:16:16;;;;;;;2.30;2.10;;;12.40;65.40;;;;;;5047425;28;20139;-81
2022/03/14 03:18:43;;;;;;;2.72;2.03;;;12.40;65.60;;;;;;5049638;28;20087;-80
2022/03/14 03:21:09;;;;;;;2.42;2.22;;;12.40;66.00;;;;;;5048771;28;20055;-79
2022/03/14 03:23:35;;;;;;;3.95;2.10;;;12.30;65.90;;;;;;5049512;28;20099;-79
2022/03/14 03:26:01;;;;;;;2.47;2.20;;;12.30;66.40;;;;;;5048364;28;20514;-79
2022/03/14 03:28:27;;;;;;;2.05;1.80;;;12.30;66.40;;;;;;5049450;28;20021;-80
2022/03/14 03:30:53;;;;;;;2.20;2.00;;;12.40;66.30;;;;;;5040904;28;20020;-79
2022/03/14 03:33:19;;;;;;;3.72;2.55;;;12.30;66.80;;;;;;5049561;28;20024;-81
2022/03/14 03:35:45;;;;;;;2.63;2.25;;;12.30;66.70;;;;;;5048230;28;20048;-79
2022/03/14 03:38:10;;;;;;;2.75;2.30;;;12.30;66.80;;;;;;5049324;28;20025;-80
2022/03/14 03:40:36;;;;;;;5.30;2.38;;;12.30;66.80;;;;;;5046719;28;20120;-79
2022/03/14 03:43:02;;;;;;;3.33;2.70;;;12.30;66.90;;;;;;5047846;28;20021;-80
2022/03/14 03:45:27;;;;;;;2.75;2.53;;;12.30;67.20;;;;;;5048833;28;20048;-79
2022/03/14 03:47:54;;;;;;;2.70;2.35;;;12.30;67.20;;;;;;5048893;28;20021;-79
2022/03/14 03:50:20;;;;;;;2.45;2.03;;;12.30;67.40;;;;;;5050959;28;20086;-79
2022/03/14 03:52:45;;;;;;;1.98;1.77;;;12.30;67.30;;;;;;5051891;28;20013;-79
2022/03/14 03:55:11;;;;;;;3.55;2.45;;;12.30;67.20;;;;;;5053377;28;20185;-80
2022/03/14 03:57:37;;;;;;;3.08;2.20;;;12.20;67.50;;;;;;5043860;28;20134;-80
2022/03/14 04:00:07;;;;;;;2.95;2.22;;;12.20;67.70;;;;;;5052083;28;20376;-80
2022/03/14 04:02:36;;;;;;;2.55;2.13;;;12.20;67.70;;;;;;5047134;28;20023;-80
2022/03/14 04:05:03;;;;;;;3.25;2.63;;;12.20;67.60;;;;;;5051935;28;20029;-80
2022/03/14 04:07:30;;;;;;;2.08;1.88;;;12.20;67.70;;;;;;5052510;28;20478;-80
2022/03/14 04:09:56;;;;;;;2.22;2.00;;;12.20;67.50;;;;;;5051736;28;20082;-81
2022/03/14 04:12:26;;;;;;;3.58;2.88;;;12.20;68.00;;;;;;5051240;28;20021;-80
2022/03/14 04:14:58;;;;;;;2.80;2.50;;;12.20;67.90;;;;;;5053102;28;20128;-80
2022/03/14 04:17:28;;;;;;;;;;;12.20;68.10;;;;;;5046752;28;20028;-80
2022/03/14 04:19:54;;;;;;;3.08;2.20;;;12.10;68.10;;;;;;5052697;28;19979;-80
2022/03/14 04:22:20;;;;;;;2.60;2.30;;;12.00;68.40;;;;;;5052923;28;20025;-80
2022/03/14 04:24:46;;;;;;;3.40;2.45;;;12.10;68.50;;;;;;5052637;28;20021;-80
2022/03/14 04:27:11;;;;;;;2.97;2.33;;;12.00;68.70;;;;;;5053449;28;20021;-80
2022/03/14 04:29:37;;;;;;;2.00;1.80;;;12.00;68.80;;;;;;5052758;28;20453;-80
2022/03/14 04:32:03;;;;;;;2.40;2.20;;;12.00;68.60;;;;;;5052789;28;20071;-81
2022/03/14 04:34:29;;;;;;;2.17;1.98;;;12.10;68.40;;;;;;5051097;28;20036;-82
2022/03/14 04:36:54;;;;;;;3.05;2.20;;;12.10;68.30;;;;;;5052788;28;20017;-83
2022/03/14 04:39:21;;;;;;;2.35;2.15;;;12.10;68.10;;;;;;5052172;28;20241;-80
2022/03/14 04:41:47;;;;;;;3.58;2.75;;;12.10;68.10;;;;;;5051820;28;20017;-80
2022/03/14 04:44:13;;;;;;;3.20;2.40;;;12.10;68.40;;;;;;5036178;28;20372;-80
2022/03/14 04:46:39;;;;;;;2.47;2.00;;;12.10;68.50;;;;;;5047980;28;20019;-80
2022/03/14 04:49:05;;;;;;;3.47;2.60;;;12.10;68.40;;;;;;5052538;28;20396;-80
2022/03/14 04:51:32;;;;;;;2.58;2.30;;;12.10;68.40;;;;;;5052238;28;20403;-79
2022/03/14 04:53:57;;;;;;;2.75;2.50;;;12.10;68.50;;;;;;5050460;28;20033;-79
2022/03/14 04:56:23;;;;;;;2.65;2.45;;;12.00;68.90;;;;;;5052525;28;20032;-80
2022/03/14 04:58:49;;;;;;;3.72;2.80;;;12.00;69.00;;;;;;5051514;28;20433;-79
2022/03/14 05:01:14;;;;;;;2.78;2.47;;;11.90;69.00;;;;;;5052063;28;20053;-80
2022/03/14 05:03:40;;;;;;;2.50;2.30;;;11.90;69.10;;;;;;5052848;28;20418;-81
2022/03/14 05:06:05;;;;;;;2.40;2.20;;;11.90;69.00;;;;;;5052739;28;20017;-80
2022/03/14 05:08:31;;;;;;;3.30;3.00;;;11.90;69.00;;;;;;5051203;28;20029;-80
2022/03/14 05:10:58;;;;;;;3.65;3.05;;;11.80;69.30;;;;;;5052198;28;20376;-80
2022/03/14 05:13:23;;;;;;;3.00;2.70;;;11.70;70.10;;;;;;5044042;28;20025;-80
2022/03/14 05:15:49;;;;;;;3.83;3.42;;;11.60;70.60;;;;;;5050135;28;20411;-81
2022/03/14 05:18:15;;;;;;;2.78;2.55;;;11.50;71.20;;;;;;5051095;28;20095;-81
2022/03/14 05:20:41;;;;;;;4.43;3.78;;;11.40;71.60;;;;;;5050334;28;20040;-81
2022/03/14 05:23:07;;;;;;;3.45;3.10;;;11.40;72.20;;;;;;5050949;28;20392;-81
2022/03/14 05:25:32;;;;;;;3.72;3.33;;;11.30;72.70;;;;;;5051629;28;20025;-81
2022/03/14 05:27:58;;;;;;;2.97;2.63;;;11.20;73.60;;;;;;5044112;28;20033;-81
2022/03/14 05:30:24;;;;;;;2.88;2.53;;;11.10;73.60;;;;;;5048824;28;20013;-81
2022/03/14 05:32:50;;;;;;;3.20;2.67;;;11.10;73.60;;;;;;5049099;28;20017;-81
2022/03/14 05:35:16;;;;;;;3.25;2.75;;;11.10;73.70;;;;;;5050759;28;20013;-81
2022/03/14 05:37:46;;;;;;;3.38;3.00;;;11.10;73.80;;;;;;5048372;28;20493;-79
2022/03/14 05:40:15;;;;;;;3.45;3.00;;;11.10;73.90;;;;;;5051263;28;20064;-79
2022/03/14 05:42:42;;;;;;;3.08;2.78;;;11.10;73.80;;;;;;5045510;28;20028;-80
2022/03/14 05:45:08;;;;;;;3.50;2.70;;;11.10;73.90;;;;;;5049978;28;20036;-81
2022/03/14 05:47:35;;;;;;;3.20;2.78;;;11.10;73.90;;;;;;5051072;28;20017;-83
2022/03/14 05:50:00;;;;;;;3.92;3.53;;;11.10;73.90;;;;;;5058177;28;20029;-81
2022/03/14 05:52:26;;;;;;;3.67;3.22;;;11.10;74.20;;;;;;5051432;28;20502;-81
2022/03/14 05:54:52;;;;;;;4.60;4.07;;;11.10;74.30;;;;;;5050519;28;20021;-81
2022/03/14 05:57:18;;;;;;;5.15;4.65;;;11.10;74.60;;;;;;5051232;28;20035;-81
2022/03/14 05:59:43;;;;;;;5.03;4.50;;;11.00;74.80;;;;;;5050479;28;20053;-81
2022/03/14 06:02:10;;;;;;;5.25;4.70;;;11.00;74.70;;;;;;5046172;28;20036;-80
2022/03/14 06:04:35;;;;;;;4.25;3.75;;;11.00;74.80;;;;;;5042305;28;20104;-81
2022/03/14 06:07:01;;;;;;;5.95;5.35;;;11.00;74.60;;;;;;5045377;28;20064;-81
2022/03/14 06:09:28;;;;;;;5.00;4.50;;;11.00;74.80;;;;;;5040781;28;20100;-80
2022/03/14 06:11:54;;;;;;;5.22;4.72;;;11.00;74.70;;;;;;5046995;28;20016;-80
2022/03/14 06:14:20;;;;;;;6.70;5.78;;;11.10;74.60;;;;;;5041242;28;20074;-80
2022/03/14 06:16:46;;;;;;;5.63;5.03;;;11.00;74.80;;;;;;5050057;28;20119;-81
2022/03/14 06:19:11;;;;;;;7.60;6.50;;;11.00;74.80;;;;;;5046193;28;20025;-81
2022/03/14 06:21:39;;;;;;;7.05;6.28;;;11.00;74.80;;;;;;5049512;28;20055;-81
2022/03/14 06:24:05;;;;;;;5.90;5.18;;;11.00;75.10;;;;;;5036089;28;20026;-80
2022/03/14 06:26:32;;;;;;;6.72;5.95;;;11.00;75.00;;;;;;5047739;28;20044;-80
2022/03/14 06:28:57;;;;;;;8.15;6.65;;;11.00;75.10;;;;;;5040454;28;20404;-79
2022/03/14 06:31:23;;;;;;;7.22;5.65;;;11.00;75.30;;;;;;5035362;28;20021;-78
2022/03/14 06:33:49;;;;;;;8.15;5.80;;;11.00;75.20;;;;;;5044080;28;20079;-79
2022/03/14 06:36:14;;;;;;;6.88;5.78;;;11.00;75.10;;;;;;5045471;28;20645;-79
2022/03/14 06:38:40;;;;;;;6.68;5.72;;;11.00;75.10;;;;;;5043859;28;20049;-80
2022/03/14 06:41:07;;;;;;;7.40;6.35;;;11.00;75.20;;;;;;5048386;28;20078;-80
2022/03/14 06:43:33;;;;;;;8.55;6.15;;;11.00;75.30;;;;;;5050395;28;20074;-80
2022/03/14 06:45:58;;;;;;;6.45;5.15;;;10.90;75.50;;;;;;5047518;28;20649;-80
2022/03/14 06:48:24;;;;;;;8.13;5.70;;;10.90;75.50;;;;;;5048853;28;20021;-80
2022/03/14 06:50:50;;;;;;;7.30;5.88;;;10.90;75.50;;;;;;5062923;28;20377;-80
2022/03/14 06:53:16;;;;;;;7.38;6.35;;;10.90;75.50;;;;;;5048509;28;20067;-74
2022/03/14 06:55:41;;;;;;;6.47;5.78;;;10.90;75.70;;;;;;5044986;28;20506;-74
2022/03/14 06:58:07;;;;;;;8.85;6.82;;;10.90;75.70;;;;;;5048954;28;20021;-74
2022/03/14 07:00:34;;;;;;;7.20;6.15;;;10.80;75.90;;;;;;5046935;28;20043;-74
2022/03/14 07:02:59;;;;;;;6.72;5.90;;;10.90;75.90;;;;;;5050164;28;20083;-74
2022/03/14 07:05:26;;;;;;;6.22;5.18;;;10.90;76.70;;;;;;5044547;28;20055;-74
2022/03/14 07:07:53;;;;;;;8.35;5.90;;;10.80;75.80;;;;;;5049034;28;20017;-83
2022/03/14 07:10:18;;;;;;;7.40;5.53;;;10.90;75.80;;;;;;5047832;28;20021;-74
2022/03/14 07:12:46;;;;;;;6.55;5.53;;;10.90;75.90;;;;;;5041867;28;20075;-74
2022/03/14 07:15:16;;;;;;;8.10;6.47;;;11.00;75.70;;;;;;5047503;28;20324;-74
2022/03/14 07:17:43;;;;;;;7.00;6.30;;;11.00;75.70;;;;;;5042585;28;20032;-75
2022/03/14 07:20:10;;;;;;;7.18;6.13;;;10.90;75.90;;;;;;5047272;28;20029;-75
2022/03/14 07:23:00;;;;;;;7.70;5.90;;;11.00;76.00;;;;;;5048811;28;20037;-73
2022/03/14 07:25:30;;;;;;;8.02;7.03;;;10.90;75.80;;;;;;5037498;28;20043;-73
2022/03/14 07:28:01;;;;;;;9.82;7.47;;;11.00;75.70;;;;;;5045162;28;20035;-74
2022/03/14 07:30:27;;;;;;;9.75;7.47;;;11.00;75.70;;;;;;5045347;28;20057;-74
2022/03/14 07:32:53;;;;;;;8.93;7.68;;;11.00;75.70;;;;;;5043774;28;20013;-74
2022/03/14 07:35:20;;;;;;;6.95;5.97;;;11.00;75.60;;;;;;5041880;28;20033;-73
2022/03/14 07:37:45;;;;;;;8.85;6.95;;;11.10;75.30;;;;;;5041043;28;20017;-74
2022/03/14 07:40:12;;;;;;;9.18;7.53;;;11.10;75.20;;;;;;5046827;28;20036;-74
2022/03/14 07:42:43;;;;;;;9.65;7.63;;;11.10;75.30;;;;;;5039863;28;20443;-74
2022/03/14 07:45:10;;;;;;;9.38;7.63;;;11.20;75.20;;;;;;5044707;28;20059;-75
2022/03/14 07:47:35;;;;;;;10.75;7.57;;;11.20;75.00;;;;;;5047541;28;20070;-75
2022/03/14 07:50:01;;;;;;;9.02;7.10;;;11.20;74.80;;;;;;5044914;28;20020;-75
2022/03/14 07:52:27;;;;;;;9.55;7.22;;;11.20;74.80;;;;;;5043997;28;20365;-75
2022/03/14 07:54:52;;;;;;;8.75;6.97;;;11.20;74.60;;;;;;5046796;28;20467;-74
2022/03/14 07:57:18;;;;;;;12.35;8.98;;;11.30;74.50;;;;;;5047789;28;20025;-74
2022/03/14 07:59:46;;;;;;;13.07;10.07;;;11.40;74.40;;;;;;5038538;28;20120;-75
2022/03/14 08:02:12;;;;;;;13.38;10.07;;;11.40;74.50;;;;;;5037180;28;20056;-74
2022/03/14 08:04:39;;;;;;;12.38;9.63;;;11.30;74.70;;;;;;5044674;28;20028;-75
2022/03/14 08:07:05;;;;;;;10.80;8.13;;;11.30;74.80;;;;;;5040146;28;20025;-75
2022/03/14 08:09:32;;;;;;;10.68;8.60;;;11.40;74.60;;;;;;5045016;28;20041;-74
2022/03/14 08:12:04;;;;;;;12.07;10.13;;;11.40;74.40;;;;;;5044329;28;20037;-76
2022/03/14 08:14:33;;;;;;;13.10;10.10;;;11.40;74.30;;;;;;5044307;28;20475;-75
2022/03/14 08:16:59;;;;;;;13.35;10.65;;;11.40;74.30;;;;;;5047621;28;20094;-75
2022/03/14 08:19:25;;;;;;;13.10;9.15;;;11.30;74.50;;;;;;5045189;28;20026;-74
2022/03/14 08:21:51;;;;;;;17.00;12.80;;;11.30;74.50;;;;;;5045959;28;20379;-74
2022/03/14 08:24:17;;;;;;;14.15;11.35;;;11.30;74.70;;;;;;5046064;28;20067;-76
2022/03/14 08:26:43;;;;;;;13.43;10.00;;;11.30;74.80;;;;;;5045472;28;20060;-74
2022/03/14 08:29:09;;;;;;;12.48;10.20;;;11.30;74.70;;;;;;5042143;28;20171;-80
2022/03/14 08:31:35;;;;;;;11.13;9.07;;;11.40;74.60;;;;;;5044271;28;20440;-78
2022/03/14 08:34:01;;;;;;;11.02;8.80;;;11.50;74.30;;;;;;5045203;28;20068;-79
2022/03/14 08:36:27;;;;;;;11.75;8.60;;;11.60;74.00;;;;;;5047780;28;20070;-80
2022/03/14 08:38:53;;;;;;;10.68;8.45;;;11.70;73.70;;;;;;5049040;28;20426;-82
2022/03/14 08:41:19;;;;;;;14.38;11.10;;;11.70;73.60;;;;;;5045889;28;20021;-78
2022/03/14 08:43:46;;;;;;;12.45;10.40;;;11.70;73.70;;;;;;5047787;28;20037;-79
2022/03/14 08:46:12;;;;;;;11.95;9.85;;;11.70;73.60;;;;;;5049846;28;20514;-78
2022/03/14 08:48:37;;;;;;;11.27;9.05;;;11.70;73.40;;;;;;5048121;28;20574;-79
2022/03/14 08:51:04;;;;;;;10.05;8.45;;;11.80;73.30;;;;;;5045672;28;20104;-79
2022/03/14 08:53:31;;;;;;;11.32;8.65;;;11.80;73.10;;;;;;5049604;28;20043;-79
2022/03/14 08:55:56;;;;;;;11.98;9.55;;;11.90;73.00;;;;;;5047866;28;20033;-78
2022/03/14 08:58:22;;;;;;;13.52;10.68;;;11.90;72.80;;;;;;5051649;28;20040;-78
2022/03/14 09:00:48;;;;;;;11.27;8.93;;;11.90;72.90;;;;;;5046361;28;20067;-79
2022/03/14 09:03:14;;;;;;;13.30;10.15;;;12.00;72.80;;;;;;5050852;28;20143;-78
2022/03/14 09:05:39;;;;;;;13.52;11.27;;;11.90;72.80;;;;;;5048105;28;20056;-77
2022/03/14 09:08:05;;;;;;;14.02;11.93;;;11.90;72.90;;;;;;5050584;28;20070;-78
2022/03/14 09:10:36;;;;;;;13.75;10.55;;;11.80;73.10;;;;;;5048571;28;20025;-78
2022/03/14 09:13:03;;;;;;;12.25;9.32;;;11.80;73.10;;;;;;5048243;28;20021;-78
2022/03/14 09:15:30;;;;;;;16.45;11.93;;;11.80;73.00;;;;;;5051197;28;20551;-78
2022/03/14 09:17:59;;;;;;;12.93;10.43;;;11.80;73.00;;;;;;5048750;28;20049;-79
2022/03/14 09:20:26;;;;;;;14.90;12.15;;;11.80;72.90;;;;;;5048287;28;20387;-79
2022/03/14 09:22:51;;;;;;;12.10;10.48;;;11.80;72.90;;;;;;5049778;28;20021;-79
2022/03/14 09:25:18;;;;;;;14.80;12.73;;;11.80;72.80;;;;;;5050818;28;20040;-79
2022/03/14 09:27:45;;;;;;;14.40;12.00;;;11.80;73.10;;;;;;5045067;28;20385;-79
2022/03/14 09:30:12;;;;;;;15.75;12.43;;;11.70;73.10;;;;;;5049260;28;20108;-80
2022/03/14 09:32:38;;;;;;;14.88;10.73;;;11.70;73.20;;;;;;5048931;28;20071;-80
2022/03/14 09:35:06;;;;;;;13.38;10.25;;;11.70;73.10;;;;;;5049885;28;20035;-80
2022/03/14 09:37:32;;;;;;;14.80;11.60;;;11.80;73.10;;;;;;5048725;28;20048;-79
2022/03/14 09:39:58;;;;;;;14.77;11.80;;;11.80;73.00;;;;;;5048195;28;20065;-79
2022/03/14 09:42:24;;;;;;;13.75;11.55;;;11.70;73.20;;;;;;5046845;28;20027;-80
2022/03/14 09:44:53;;;;;;;13.85;10.25;;;11.70;73.20;;;;;;5049884;28;20036;-81
2022/03/14 09:47:23;;;;;;;14.55;9.95;;;11.90;73.10;;;;;;5042100;28;20018;-83
2022/03/14 09:49:54;;;;;;;16.77;12.68;;;11.90;72.90;;;;;;5046651;28;20455;-73
2022/03/14 09:52:20;;;;;;;15.77;12.70;;;11.90;72.70;;;;;;5048744;28;20369;-74
2022/03/14 09:54:47;;;;;;;14.25;11.60;;;11.90;72.60;;;;;;5042214;28;20029;-74
2022/03/14 09:57:14;;;;;;;17.33;13.35;;;11.90;72.50;;;;;;5047739;28;20515;-74
2022/03/14 09:59:41;;;;;;;12.77;10.43;;;11.90;72.70;;;;;;5047005;28;20061;-74
2022/03/14 10:02:12;;;;;;;16.17;12.70;;;12.00;72.60;;;;;;5044678;28;20021;-74
2022/03/14 10:04:38;;;;;;;16.35;12.52;;;12.00;72.50;;;;;;5046295;28;20026;-73
2022/03/14 10:07:05;;;;;;;20.05;15.23;;;12.00;72.40;;;;;;5046955;28;20108;-74
2022/03/14 10:09:31;;;;;;;15.38;12.32;;;11.90;72.70;;;;;;5039444;28;20033;-74
2022/03/14 10:11:57;;;;;;;13.27;10.90;;;11.90;72.70;;;;;;5042425;28;20037;-73
2022/03/14 10:14:23;;;;;;;15.55;12.23;;;12.00;72.60;;;;;;5044748;28;20383;-74
2022/03/14 10:16:54;;;;;;;15.10;12.40;;;12.00;72.50;;;;;;5040429;28;20044;-74
2022/03/14 10:19:20;;;;;;;17.52;13.40;;;12.10;72.30;;;;;;5040589;28;20037;-75
2022/03/14 10:21:47;;;;;;;16.77;13.48;;;12.20;72.10;;;;;;5045335;28;20115;-75
2022/03/14 10:24:13;;;;;;;13.18;10.75;;;12.20;72.80;;;;;;5045487;28;20383;-74
2022/03/14 10:26:43;;;;;;;12.45;9.75;;;12.30;71.90;;;;;;5042708;28;20021;-74
2022/03/14 10:29:13;;;;;;;17.23;13.90;;;12.40;71.80;;;;;;5044509;28;20021;-72
2022/03/14 10:31:45;;;;;;;17.42;14.07;;;12.30;72.00;;;;;;5041698;28;20033;-74
2022/03/14 10:34:13;;;;;;;19.25;14.80;;;12.30;72.00;;;;;;5046071;28;20021;-73
2022/03/14 10:36:49;;;;;;;18.00;13.63;;;12.40;71.90;;;;;;5042391;28;20029;-73
2022/03/14 10:39:19;;;;;;;15.20;12.68;;;12.50;71.70;;;;;;5043597;28;20055;-73
2022/03/14 10:42:07;;;;;;;20.98;15.80;;;12.50;71.50;;;;;;5041914;28;20029;-75
2022/03/14 10:44:33;;;;;;;18.65;14.25;;;12.50;71.50;;;;;;5038554;28;20032;-75
2022/03/14 10:47:04;;;;;;;14.90;10.75;;;12.50;71.50;;;;;;5040482;28;20130;-75
2022/03/14 10:49:32;;;;;;;14.45;10.43;;;12.60;71.40;;;;;;5042055;28;20613;-73
2022/03/14 10:52:00;;;;;;;16.80;12.40;;;12.70;71.20;;;;;;5062611;28;20040;-74
2022/03/14 10:54:26;;;;;;;13.90;10.73;;;12.70;71.00;;;;;;5040400;28;20056;-74
2022/03/14 10:57:01;;;;;;;12.43;9.55;;;12.80;71.00;;;;;;5044050;28;20017;-74
2022/03/14 10:59:43;;;;;;;15.80;11.82;;;12.80;70.60;;;;;;5042679;28;20127;-75
2022/03/14 11:02:23;;;;;;;13.75;10.90;;;12.70;70.60;;;;;;5042380;28;20029;-73
2022/03/14 11:04:59;;;;;;;15.98;12.45;;;12.60;70.70;;;;;;5044315;28;20017;-74
2022/03/14 11:07:32;;;;;;;15.68;12.38;;;12.50;70.80;;;;;;5043531;28;20025;-74
2022/03/14 11:09:59;;;;;;;16.17;12.52;;;12.60;71.00;;;;;;5041052;28;20368;-73
2022/03/14 11:12:27;;;;;;;13.82;10.65;;;12.80;70.90;;;;;;5040831;28;20025;-74
2022/03/14 11:14:55;;;;;;;14.32;10.45;;;12.90;70.50;;;;;;5046965;28;20113;-74
2022/03/14 11:17:23;;;;;;;15.48;11.13;;;13.00;70.10;;;;;;5044675;28;20082;-74
2022/03/14 11:19:50;;;;;;;19.83;13.32;;;13.00;69.90;;;;;;5044459;28;20086;-74
2022/03/14 11:22:17;;;;;;;14.45;11.02;;;12.90;69.70;;;;;;5045445;28;20380;-73
2022/03/14 11:24:56;;;;;;;15.20;11.52;;;12.90;69.70;;;;;;5046718;28;20028;-74
2022/03/14 11:27:24;;;;;;;15.20;11.40;;;12.80;69.60;;;;;;5042106;28;20027;-74
2022/03/14 11:29:53;;;;;;;13.75;9.77;;;12.90;69.70;;;;;;5056554;28;20079;-74
2022/03/14 11:32:19;;;;;;;14.38;10.60;;;12.90;69.70;;;;;;5043569;28;20400;-73
2022/03/14 11:34:47;;;;;;;10.85;8.88;;;13.00;69.50;;;;;;5047267;28;20475;-74
2022/03/14 11:37:13;;;;;;;10.57;8.52;;;13.20;69.30;;;;;;5046933;28;20468;-74
2022/03/14 11:39:39;;;;;;;14.05;10.20;;;13.40;68.90;;;;;;5043441;28;20036;-73
2022/03/14 11:42:05;;;;;;;13.18;10.35;;;13.60;68.40;;;;;;5039493;28;20048;-74
2022/03/14 11:44:31;;;;;;;11.45;9.35;;;13.70;67.90;;;;;;5043793;28;20059;-75
2022/03/14 11:46:58;;;;;;;13.68;9.48;;;13.70;67.60;;;;;;5047131;28;20029;-74
2022/03/14 11:49:29;;;;;;;13.10;8.90;;;13.80;67.40;;;;;;5045432;28;20491;-74
2022/03/14 11:52:18;;;;;;;11.98;8.63;;;13.80;67.20;;;;;;5044805;28;20120;-74
2022/03/14 11:54:58;;;;;;;9.98;8.20;;;13.80;67.00;;;;;;5045297;28;20063;-75
2022/03/14 11:57:41;;;;;;;11.90;7.85;;;13.70;66.80;;;;;;5045742;28;20028;-74
2022/03/14 12:00:24;;;;;;;10.32;7.82;;;13.80;66.90;;;;;;5044148;28;20136;-74
2022/03/14 12:02:55;;;;;;;9.60;7.32;;;14.00;66.80;;;;;;5043356;28;20022;-74
2022/03/14 12:05:41;;;;;;;11.43;7.82;;;14.30;66.40;;;;;;5043289;28;20082;-74
2022/03/14 12:08:27;;;;;;;10.18;6.95;;;14.40;65.60;;;;;;5046275;28;20021;-74
2022/03/14 12:10:53;;;;;;;12.57;8.25;;;14.30;65.20;;;;;;5045882;28;20496;-74
2022/03/14 12:13:42;;;;;;;10.50;6.22;;;14.30;65.20;;;;;;5051625;28;20029;-74
2022/03/14 12:16:33;;;;;;;12.65;6.90;;;14.50;65.30;;;;;;5046483;28;20089;-74
2022/03/14 12:18:59;;;;;;;11.30;7.68;;;14.70;64.20;;;;;;5046076;28;20020;-74
2022/03/14 12:21:45;;;;;;;9.50;6.60;;;14.70;63.80;;;;;;5047249;28;20117;-74
2022/03/14 12:24:36;;;;;;;9.70;5.78;;;14.90;63.90;;;;;;5048645;28;20526;-74
2022/03/14 12:27:14;;;;;;;8.80;6.10;;;15.10;63.30;;;;;;5049387;28;20029;-74
2022/03/14 12:29:40;;;;;;;8.82;5.82;;;15.30;62.90;;;;;;5048819;28;20032;-74
2022/03/14 12:32:29;;;;;;;7.60;5.57;;;15.60;62.40;;;;;;5047398;28;20434;-73
2022/03/14 12:35:09;;;;;;;8.40;5.53;;;15.70;61.50;;;;;;5047175;28;20108;-74
2022/03/14 12:37:35;;;;;;;9.93;6.90;;;15.70;61.20;;;;;;5051451;28;20029;-74
2022/03/14 12:40:08;;;;;;;10.77;6.35;;;15.80;60.20;;;;;;5049800;28;20378;-75
2022/03/14 12:42:45;;;;;;;8.88;6.40;;;15.70;60.00;;;;;;5047431;28;20104;-74